sensor_id;sensor_type;location;lat;lon;timestamp;P1;durP1;ratioP1;P2;durP2;ratioP2
20056;SDS011;10189;49.546;7.906;2023-04-03T00:01:14;8.65;;;5.82;;
20056;SDS011;10189;49.546;7.906;2023-04-03T00:03:41;6.72;;;5.45;;
20056;SDS011;10189;49.546;7.906;2023-04-03T00:06:07;7.13;;;5.90;;
20056;SDS011;10189;49.546;7.906;2023-04-03T00:08:36;6.20;;;5.35;;
20056;SDS011;10189;49.546;7.906;2023-04-03T00:11:03;6.25;;;5.50;;
20056;SDS011;10189;49.546;7.906;2023-04-03T00:13:30;6.75;;;5.18;;
20056;SDS011;10189;49.546;7.906;2023-04-03T00:15:57;7.25;;;5.35;;
20056;SDS011;10189;49.546;7.906;2023-04-03T00:18:24;6.47;;;5.32;;
20056;SDS011;10189;49.546;7.906;2023-04-03T00:20:50;5.90;;;5.30;;
20056;SDS011;10189;49.546;7.906;2023-04-03T00:23:16;7.13;;;5.38;;
20056;SDS011;10189;49.546;7.906;2023-04-03T00:25:42;6.15;;;5.55;;
20056;SDS011;10189;49.546;7.906;2023-04-03T00:28:08;7.72;;;5.72;;
20056;SDS011;10189;49.546;7.906;2023-04-03T00:30:34;9.00;;;5.30;;
20056;SDS011;10189;49.546;7.906;2023-04-03T00:33:00;6.85;;;5.78;;
20056;SDS011;10189;49.546;7.906;2023-04-03T00:35:27;7.25;;;5.68;;
20056;SDS011;10189;49.546;7.906;2023-04-03T00:37:54;7.05;;;5.50;;
20056;SDS011;10189;49.546;7.906;2023-04-03T00:40:21;6.22;;;5.18;;
20056;SDS011;10189;49.546;7.906;2023-04-03T00:42:54;6.22;;;5.28;;
20056;SDS011;10189;49.546;7.906;2023-04-03T00:45:29;6.25;;;5.50;;
20056;SDS011;10189;49.546;7.906;2023-04-03T00:48:07;6.50;;;5.90;;
20056;SDS011;10189;49.546;7.906;2023-04-03T00:50:38;6.70;;;6.00;;
20056;SDS011;10189;49.546;7.906;2023-04-03T00:53:08;6.53;;;5.82;;
20056;SDS011;10189;49.546;7.906;2023-04-03T00:55:42;5.95;;;5.35;;
20056;SDS011;10189;49.546;7.906;2023-04-03T00:58:12;6.77;;;5.93;;
20056;SDS011;10189;49.546;7.906;2023-04-03T01:00:44;6.65;;;5.65;;
20056;SDS011;10189;49.546;7.906;2023-04-03T01:03:21;8.68;;;6.00;;
20056;SDS011;10189;49.546;7.906;2023-04-03T01:05:47;8.48;;;6.20;;
20056;SDS011;10189;49.546;7.906;2023-04-03T01:08:14;7.75;;;6.80;;
20056;SDS011;10189;49.546;7.906;2023-04-03T01:10:40;8.00;;;6.38;;
20056;SDS011;10189;49.546;7.906;2023-04-03T01:13:23;8.63;;;6.60;;
20056;SDS011;10189;49.546;7.906;2023-04-03T01:15:55;11.18;;;6.45;;
20056;SDS011;10189;49.546;7.906;2023-04-03T01:18:22;6.90;;;6.13;;
20056;SDS011;10189;49.546;7.906;2023-04-03T01:21:00;7.93;;;6.30;;
20056;SDS011;10189;49.546;7.906;2023-04-03T01:23:49;8.98;;;6.93;;
20056;SDS011;10189;49.546;7.906;2023-04-03T01:26:23;8.93;;;6.80;;
20056;SDS011;10189;49.546;7.906;2023-04-03T01:28:51;9.00;;;6.80;;
20056;SDS011;10189;49.546;7.906;2023-04-03T01:31:28;9.47;;;6.90;;
20056;SDS011;10189;49.546;7.906;2023-04-03T01:34:37;11.50;;;6.95;;
20056;SDS011;10189;49.546;7.906;2023-04-03T01:37:03;8.68;;;7.70;;
20056;SDS011;10189;49.546;7.906;2023-04-03T01:39:29;8.65;;;7.20;;
20056;SDS011;10189;49.546;7.906;2023-04-03T01:41:55;11.60;;;7.47;;
20056;SDS011;10189;49.546;7.906;2023-04-03T01:44:29;10.50;;;7.82;;
20056;SDS011;10189;49.546;7.906;2023-04-03T01:46:55;8.55;;;7.60;;
20056;SDS011;10189;49.546;7.906;2023-04-03T01:49:23;12.55;;;8.40;;
20056;SDS011;10189;49.546;7.906;2023-04-03T01:51:49;11.55;;;7.70;;
20056;SDS011;10189;49.546;7.906;2023-04-03T01:54:15;10.48;;;7.57;;
20056;SDS011;10189;49.546;7.906;2023-04-03T01:56:41;8.75;;;7.57;;
20056;SDS011;10189;49.546;7.906;2023-04-03T01:59:08;10.43;;;7.95;;
20056;SDS011;10189;49.546;7.906;2023-04-03T02:01:34;9.68;;;7.65;;
20056;SDS011;10189;49.546;7.906;2023-04-03T02:04:01;11.00;;;8.02;;
20056;SDS011;10189;49.546;7.906;2023-04-03T02:06:27;11.30;;;8.65;;
20056;SDS011;10189;49.546;7.906;2023-04-03T02:08:53;11.13;;;8.65;;
20056;SDS011;10189;49.546;7.906;2023-04-03T02:11:18;9.25;;;7.80;;
20056;SDS011;10189;49.546;7.906;2023-04-03T02:13:45;9.98;;;7.93;;
20056;SDS011;10189;49.546;7.906;2023-04-03T02:16:11;11.55;;;7.90;;
20056;SDS011;10189;49.546;7.906;2023-04-03T02:18:38;9.40;;;7.78;;
20056;SDS011;10189;49.546;7.906;2023-04-03T02:21:04;9.27;;;7.90;;
20056;SDS011;10189;49.546;7.906;2023-04-03T02:23:30;11.40;;;7.97;;
20056;SDS011;10189;49.546;7.906;2023-04-03T02:26:05;11.75;;;7.88;;
20056;SDS011;10189;49.546;7.906;2023-04-03T02:28:37;10.30;;;8.02;;
20056;SDS011;10189;49.546;7.906;2023-04-03T02:31:04;8.38;;;7.10;;
20056;SDS011;10189;49.546;7.906;2023-04-03T02:33:32;10.85;;;7.60;;
20056;SDS011;10189;49.546;7.906;2023-04-03T02:35:59;8.82;;;7.85;;
20056;SDS011;10189;49.546;7.906;2023-04-03T02:38:25;9.00;;;7.50;;
20056;SDS011;10189;49.546;7.906;2023-04-03T02:40:52;9.73;;;7.53;;
20056;SDS011;10189;49.546;7.906;2023-04-03T02:43:18;9.18;;;7.47;;
20056;SDS011;10189;49.546;7.906;2023-04-03T02:45:44;9.60;;;7.20;;
20056;SDS011;10189;49.546;7.906;2023-04-03T02:48:10;12.07;;;7.63;;
20056;SDS011;10189;49.546;7.906;2023-04-03T02:50:37;9.20;;;6.95;;
20056;SDS011;10189;49.546;7.906;2023-04-03T02:53:02;9.40;;;6.68;;
20056;SDS011;10189;49.546;7.906;2023-04-03T02:55:28;10.40;;;6.90;;
20056;SDS011;10189;49.546;7.906;2023-04-03T02:57:55;10.50;;;7.68;;
20056;SDS011;10189;49.546;7.906;2023-04-03T03:00:21;11.10;;;6.63;;
20056;SDS011;10189;49.546;7.906;2023-04-03T03:02:48;7.60;;;6.57;;
20056;SDS011;10189;49.546;7.906;2023-04-03T03:05:14;8.45;;;6.50;;
20056;SDS011;10189;49.546;7.906;2023-04-03T03:07:40;8.98;;;6.00;;
20056;SDS011;10189;49.546;7.906;2023-04-03T03:10:06;9.80;;;6.35;;
20056;SDS011;10189;49.546;7.906;2023-04-03T03:12:33;8.77;;;5.78;;
20056;SDS011;10189;49.546;7.906;2023-04-03T03:14:59;7.38;;;5.80;;
20056;SDS011;10189;49.546;7.906;2023-04-03T03:17:25;7.57;;;5.72;;
20056;SDS011;10189;49.546;7.906;2023-04-03T03:19:51;7.13;;;5.38;;
20056;SDS011;10189;49.546;7.906;2023-04-03T03:22:17;7.90;;;5.70;;
20056;SDS011;10189;49.546;7.906;2023-04-03T03:24:43;9.65;;;5.45;;
20056;SDS011;10189;49.546;7.906;2023-04-03T03:27:09;7.50;;;5.45;;
20056;SDS011;10189;49.546;7.906;2023-04-03T03:29:37;6.43;;;5.45;;
20056;SDS011;10189;49.546;7.906;2023-04-03T03:32:04;8.32;;;4.85;;
20056;SDS011;10189;49.546;7.906;2023-04-03T03:34:30;7.25;;;4.85;;
20056;SDS011;10189;49.546;7.906;2023-04-03T03:36:55;7.10;;;5.22;;
20056;SDS011;10189;49.546;7.906;2023-04-03T03:39:21;8.57;;;5.30;;
20056;SDS011;10189;49.546;7.906;2023-04-03T03:41:48;6.93;;;4.43;;
20056;SDS011;10189;49.546;7.906;2023-04-03T03:44:15;7.05;;;4.88;;
20056;SDS011;10189;49.546;7.906;2023-04-03T03:46:41;6.18;;;4.95;;
20056;SDS011;10189;49.546;7.906;2023-04-03T03:49:07;7.07;;;5.40;;
20056;SDS011;10189;49.546;7.906;2023-04-03T03:51:34;7.97;;;5.03;;
20056;SDS011;10189;49.546;7.906;2023-04-03T03:54:00;6.13;;;5.15;;
20056;SDS011;10189;49.546;7.906;2023-04-03T03:56:25;7.32;;;5.25;;
20056;SDS011;10189;49.546;7.906;2023-04-03T03:58:52;6.28;;;5.00;;
20056;SDS011;10189;49.546;7.906;2023-04-03T04:01:20;8.63;;;4.95;;
20056;SDS011;10189;49.546;7.906;2023-04-03T04:03:48;6.53;;;5.07;;
20056;SDS011;10189;49.546;7.906;2023-04-03T04:06:18;6.10;;;5.03;;
20056;SDS011;10189;49.546;7.906;2023-04-03T04:08:44;6.30;;;4.95;;
20056;SDS011;10189;49.546;7.906;2023-04-03T04:11:12;6.75;;;5.10;;
20056;SDS011;10189;49.546;7.906;2023-04-03T04:13:39;8.98;;;4.90;;
20056;SDS011;10189;49.546;7.906;2023-04-03T04:16:07;6.40;;;4.80;;
20056;SDS011;10189;49.546;7.906;2023-04-03T04:18:35;9.45;;;5.20;;
20056;SDS011;10189;49.546;7.906;2023-04-03T04:21:00;5.82;;;4.95;;
20056;SDS011;10189;49.546;7.906;2023-04-03T04:23:27;5.65;;;4.70;;
20056;SDS011;10189;49.546;7.906;2023-04-03T04:25:53;8.50;;;5.15;;
20056;SDS011;10189;49.546;7.906;2023-04-03T04:28:20;6.53;;;4.93;;
20056;SDS011;10189;49.546;7.906;2023-04-03T04:30:49;6.78;;;5.35;;
20056;SDS011;10189;49.546;7.906;2023-04-03T04:33:17;6.75;;;5.15;;
20056;SDS011;10189;49.546;7.906;2023-04-03T04:35:43;8.23;;;4.72;;
20056;SDS011;10189;49.546;7.906;2023-04-03T04:38:12;6.65;;;4.88;;
20056;SDS011;10189;49.546;7.906;2023-04-03T04:40:38;6.05;;;4.65;;
20056;SDS011;10189;49.546;7.906;2023-04-03T04:43:05;11.10;;;4.88;;
20056;SDS011;10189;49.546;7.906;2023-04-03T04:45:32;6.10;;;4.50;;
20056;SDS011;10189;49.546;7.906;2023-04-03T04:47:58;7.65;;;4.85;;
20056;SDS011;10189;49.546;7.906;2023-04-03T04:50:24;6.03;;;4.60;;
20056;SDS011;10189;49.546;7.906;2023-04-03T04:52:51;8.07;;;4.72;;
20056;SDS011;10189;49.546;7.906;2023-04-03T04:55:17;6.57;;;4.90;;
20056;SDS011;10189;49.546;7.906;2023-04-03T04:57:44;6.00;;;4.40;;
20056;SDS011;10189;49.546;7.906;2023-04-03T05:00:10;8.10;;;4.45;;
20056;SDS011;10189;49.546;7.906;2023-04-03T05:02:38;6.57;;;4.47;;
20056;SDS011;10189;49.546;7.906;2023-04-03T05:05:04;5.70;;;4.53;;
20056;SDS011;10189;49.546;7.906;2023-04-03T05:07:32;7.20;;;4.78;;
20056;SDS011;10189;49.546;7.906;2023-04-03T05:09:59;6.13;;;4.80;;
20056;SDS011;10189;49.546;7.906;2023-04-03T05:12:25;7.35;;;4.78;;
20056;SDS011;10189;49.546;7.906;2023-04-03T05:14:56;7.70;;;5.15;;
20056;SDS011;10189;49.546;7.906;2023-04-03T05:17:24;7.80;;;5.47;;
20056;SDS011;10189;49.546;7.906;2023-04-03T05:19:53;8.68;;;5.05;;
20056;SDS011;10189;49.546;7.906;2023-04-03T05:22:21;8.23;;;5.30;;
20056;SDS011;10189;49.546;7.906;2023-04-03T05:24:47;12.00;;;6.78;;
20056;SDS011;10189;49.546;7.906;2023-04-03T05:27:15;8.57;;;5.38;;
20056;SDS011;10189;49.546;7.906;2023-04-03T05:29:46;7.68;;;5.38;;
20056;SDS011;10189;49.546;7.906;2023-04-03T05:32:17;7.78;;;5.38;;
20056;SDS011;10189;49.546;7.906;2023-04-03T05:34:47;23.15;;;12.63;;
20056;SDS011;10189;49.546;7.906;2023-04-03T05:37:13;15.57;;;11.07;;
20056;SDS011;10189;49.546;7.906;2023-04-03T05:39:39;10.30;;;6.20;;
20056;SDS011;10189;49.546;7.906;2023-04-03T05:42:06;9.57;;;5.75;;
20056;SDS011;10189;49.546;7.906;2023-04-03T05:44:33;14.88;;;9.88;;
20056;SDS011;10189;49.546;7.906;2023-04-03T05:47:00;13.80;;;8.23;;
20056;SDS011;10189;49.546;7.906;2023-04-03T05:49:26;8.18;;;5.78;;
20056;SDS011;10189;49.546;7.906;2023-04-03T05:51:52;11.48;;;8.63;;
20056;SDS011;10189;49.546;7.906;2023-04-03T05:54:27;7.72;;;5.35;;
20056;SDS011;10189;49.546;7.906;2023-04-03T05:57:07;9.02;;;5.05;;
20056;SDS011;10189;49.546;7.906;2023-04-03T05:59:33;8.02;;;5.13;;
20056;SDS011;10189;49.546;7.906;2023-04-03T06:02:00;9.55;;;4.60;;
20056;SDS011;10189;49.546;7.906;2023-04-03T06:04:26;8.98;;;4.97;;
20056;SDS011;10189;49.546;7.906;2023-04-03T06:06:53;5.60;;;4.10;;
20056;SDS011;10189;49.546;7.906;2023-04-03T06:09:25;8.18;;;4.72;;
20056;SDS011;10189;49.546;7.906;2023-04-03T06:11:54;6.20;;;4.10;;
20056;SDS011;10189;49.546;7.906;2023-04-03T06:14:22;5.68;;;4.38;;
20056;SDS011;10189;49.546;7.906;2023-04-03T06:16:48;10.75;;;4.13;;
20056;SDS011;10189;49.546;7.906;2023-04-03T06:19:14;9.77;;;4.43;;
20056;SDS011;10189;49.546;7.906;2023-04-03T06:21:45;10.90;;;6.55;;
20056;SDS011;10189;49.546;7.906;2023-04-03T06:24:14;5.32;;;3.28;;
20056;SDS011;10189;49.546;7.906;2023-04-03T06:26:42;10.10;;;4.23;;
20056;SDS011;10189;49.546;7.906;2023-04-03T06:29:08;7.47;;;3.20;;
20056;SDS011;10189;49.546;7.906;2023-04-03T06:31:34;8.15;;;3.85;;
20056;SDS011;10189;49.546;7.906;2023-04-03T06:34:02;7.55;;;3.75;;
20056;SDS011;10189;49.546;7.906;2023-04-03T06:36:28;6.47;;;3.80;;
20056;SDS011;10189;49.546;7.906;2023-04-03T06:38:55;5.22;;;3.33;;
20056;SDS011;10189;49.546;7.906;2023-04-03T06:41:21;6.65;;;3.50;;
20056;SDS011;10189;49.546;7.906;2023-04-03T06:43:47;4.53;;;3.22;;
20056;SDS011;10189;49.546;7.906;2023-04-03T06:46:17;5.72;;;3.53;;
20056;SDS011;10189;49.546;7.906;2023-04-03T06:48:45;6.32;;;3.17;;
20056;SDS011;10189;49.546;7.906;2023-04-03T06:51:25;5.82;;;3.28;;
20056;SDS011;10189;49.546;7.906;2023-04-03T06:53:56;8.45;;;3.60;;
20056;SDS011;10189;49.546;7.906;2023-04-03T06:56:24;4.40;;;2.35;;
20056;SDS011;10189;49.546;7.906;2023-04-03T06:58:51;6.20;;;3.40;;
20056;SDS011;10189;49.546;7.906;2023-04-03T07:01:23;7.32;;;3.08;;
20056;SDS011;10189;49.546;7.906;2023-04-03T07:03:52;10.80;;;3.80;;
20056;SDS011;10189;49.546;7.906;2023-04-03T07:06:19;6.88;;;3.20;;
20056;SDS011;10189;49.546;7.906;2023-04-03T07:08:45;5.28;;;3.60;;
20056;SDS011;10189;49.546;7.906;2023-04-03T07:11:13;4.22;;;3.05;;
20056;SDS011;10189;49.546;7.906;2023-04-03T07:13:40;7.40;;;3.55;;
20056;SDS011;10189;49.546;7.906;2023-04-03T07:16:06;6.78;;;3.20;;
20056;SDS011;10189;49.546;7.906;2023-04-03T07:18:33;5.85;;;3.13;;
20056;SDS011;10189;49.546;7.906;2023-04-03T07:21:00;6.20;;;3.25;;
20056;SDS011;10189;49.546;7.906;2023-04-03T07:23:26;8.70;;;3.60;;
20056;SDS011;10189;49.546;7.906;2023-04-03T07:25:52;6.68;;;3.60;;
20056;SDS011;10189;49.546;7.906;2023-04-03T07:28:19;7.25;;;3.85;;
20056;SDS011;10189;49.546;7.906;2023-04-03T07:30:51;5.60;;;3.53;;
20056;SDS011;10189;49.546;7.906;2023-04-03T07:33:24;7.22;;;3.83;;
20056;SDS011;10189;49.546;7.906;2023-04-03T07:35:51;6.75;;;3.60;;
20056;SDS011;10189;49.546;7.906;2023-04-03T07:38:17;7.22;;;3.70;;
20056;SDS011;10189;49.546;7.906;2023-04-03T07:40:47;8.23;;;3.90;;
20056;SDS011;10189;49.546;7.906;2023-04-03T07:43:15;8.27;;;3.72;;
20056;SDS011;10189;49.546;7.906;2023-04-03T07:45:42;6.15;;;3.60;;
20056;SDS011;10189;49.546;7.906;2023-04-03T07:48:11;7.30;;;3.33;;
20056;SDS011;10189;49.546;7.906;2023-04-03T07:50:41;5.13;;;3.40;;
20056;SDS011;10189;49.546;7.906;2023-04-03T07:53:08;8.85;;;3.83;;
20056;SDS011;10189;49.546;7.906;2023-04-03T07:55:34;6.60;;;3.78;;
20056;SDS011;10189;49.546;7.906;2023-04-03T07:58:07;5.88;;;3.80;;
20056;SDS011;10189;49.546;7.906;2023-04-03T08:00:39;7.72;;;4.30;;
20056;SDS011;10189;49.546;7.906;2023-04-03T08:03:05;4.90;;;3.47;;
20056;SDS011;10189;49.546;7.906;2023-04-03T08:05:38;6.82;;;3.97;;
20056;SDS011;10189;49.546;7.906;2023-04-03T08:08:10;6.15;;;3.80;;
20056;SDS011;10189;49.546;7.906;2023-04-03T08:10:40;6.63;;;4.07;;
20056;SDS011;10189;49.546;7.906;2023-04-03T08:13:06;7.00;;;3.90;;
20056;SDS011;10189;49.546;7.906;2023-04-03T08:15:34;8.82;;;4.47;;
20056;SDS011;10189;49.546;7.906;2023-04-03T08:18:01;8.23;;;4.47;;
20056;SDS011;10189;49.546;7.906;2023-04-03T08:20:29;9.73;;;6.65;;
20056;SDS011;10189;49.546;7.906;2023-04-03T08:22:55;7.22;;;4.20;;
20056;SDS011;10189;49.546;7.906;2023-04-03T08:25:21;6.13;;;4.35;;
20056;SDS011;10189;49.546;7.906;2023-04-03T08:27:47;7.65;;;4.13;;
20056;SDS011;10189;49.546;7.906;2023-04-03T08:30:13;6.72;;;4.35;;
20056;SDS011;10189;49.546;7.906;2023-04-03T08:32:39;7.43;;;4.20;;
20056;SDS011;10189;49.546;7.906;2023-04-03T08:35:07;10.00;;;4.20;;
20056;SDS011;10189;49.546;7.906;2023-04-03T08:37:37;8.75;;;4.65;;
20056;SDS011;10189;49.546;7.906;2023-04-03T08:40:05;5.50;;;4.00;;
20056;SDS011;10189;49.546;7.906;2023-04-03T08:51:04;8.13;;;4.80;;
20056;SDS011;10189;49.546;7.906;2023-04-03T08:53:42;7.63;;;4.85;;
20056;SDS011;10189;49.546;7.906;2023-04-03T08:56:29;7.13;;;3.88;;
20056;SDS011;10189;49.546;7.906;2023-04-03T08:59:00;6.63;;;4.18;;
20056;SDS011;10189;49.546;7.906;2023-04-03T09:01:39;6.13;;;4.32;;
20056;SDS011;10189;49.546;7.906;2023-04-03T09:04:16;9.00;;;4.40;;
20056;SDS011;10189;49.546;7.906;2023-04-03T09:06:44;5.70;;;3.72;;
20056;SDS011;10189;49.546;7.906;2023-04-03T09:09:24;6.10;;;4.40;;
20056;SDS011;10189;49.546;7.906;2023-04-03T09:18:03;7.80;;;4.13;;
20056;SDS011;10189;49.546;7.906;2023-04-03T09:23:55;6.03;;;3.97;;
20056;SDS011;10189;49.546;7.906;2023-04-03T09:26:28;7.97;;;3.70;;
20056;SDS011;10189;49.546;7.906;2023-04-03T09:29:05;5.22;;;3.65;;
20056;SDS011;10189;49.546;7.906;2023-04-03T09:31:37;4.47;;;3.30;;
20056;SDS011;10189;49.546;7.906;2023-04-03T09:34:16;4.60;;;3.40;;
20056;SDS011;10189;49.546;7.906;2023-04-03T09:36:54;6.78;;;3.40;;
20056;SDS011;10189;49.546;7.906;2023-04-03T09:39:32;6.05;;;3.28;;
20056;SDS011;10189;49.546;7.906;2023-04-03T09:42:25;4.65;;;3.38;;
20056;SDS011;10189;49.546;7.906;2023-04-03T09:44:58;9.35;;;3.78;;
20056;SDS011;10189;49.546;7.906;2023-04-03T09:47:34;7.22;;;3.20;;
20056;SDS011;10189;49.546;7.906;2023-04-03T09:52:40;6.13;;;3.20;;
20056;SDS011;10189;49.546;7.906;2023-04-03T09:55:18;4.88;;;3.40;;
20056;SDS011;10189;49.546;7.906;2023-04-03T09:57:57;5.07;;;3.00;;
20056;SDS011;10189;49.546;7.906;2023-04-03T10:00:28;6.75;;;3.08;;
20056;SDS011;10189;49.546;7.906;2023-04-03T10:02:59;4.28;;;2.85;;
20056;SDS011;10189;49.546;7.906;2023-04-03T10:05:27;5.85;;;3.13;;
20056;SDS011;10189;49.546;7.906;2023-04-03T10:11:12;5.10;;;3.40;;
20056;SDS011;10189;49.546;7.906;2023-04-03T10:13:55;4.43;;;2.95;;
20056;SDS011;10189;49.546;7.906;2023-04-03T10:16:38;5.47;;;2.65;;
20056;SDS011;10189;49.546;7.906;2023-04-03T10:21:55;3.42;;;2.80;;
20056;SDS011;10189;49.546;7.906;2023-04-03T10:42:53;5.47;;;2.80;;
20056;SDS011;10189;49.546;7.906;2023-04-03T10:56:52;5.95;;;2.47;;
20056;SDS011;10189;49.546;7.906;2023-04-03T10:59:30;5.45;;;2.50;;
20056;SDS011;10189;49.546;7.906;2023-04-03T11:02:48;6.95;;;3.08;;
20056;SDS011;10189;49.546;7.906;2023-04-03T11:05:37;3.58;;;2.42;;
20056;SDS011;10189;49.546;7.906;2023-04-03T11:07:59;5.95;;;2.53;;
20056;SDS011;10189;49.546;7.906;2023-04-03T11:13:18;5.55;;;2.58;;
20056;SDS011;10189;49.546;7.906;2023-04-03T11:16:08;4.60;;;2.50;;
20056;SDS011;10189;49.546;7.906;2023-04-03T11:18:45;4.50;;;2.60;;
20056;SDS011;10189;49.546;7.906;2023-04-03T11:21:47;4.30;;;2.47;;
20056;SDS011;10189;49.546;7.906;2023-04-03T11:24:27;12.55;;;5.18;;
20056;SDS011;10189;49.546;7.906;2023-04-03T11:29:31;4.38;;;2.53;;
20056;SDS011;10189;49.546;7.906;2023-04-03T11:34:48;5.18;;;3.03;;
20056;SDS011;10189;49.546;7.906;2023-04-03T11:40:06;4.30;;;2.95;;
20056;SDS011;10189;49.546;7.906;2023-04-03T11:46:18;6.90;;;3.05;;
20056;SDS011;10189;49.546;7.906;2023-04-03T11:48:45;3.90;;;2.70;;
20056;SDS011;10189;49.546;7.906;2023-04-03T11:53:42;4.63;;;2.75;;
20056;SDS011;10189;49.546;7.906;2023-04-03T12:01:42;2.50;;;2.20;;
20056;SDS011;10189;49.546;7.906;2023-04-03T12:04:28;4.22;;;2.90;;
20056;SDS011;10189;49.546;7.906;2023-04-03T12:07:02;4.30;;;2.70;;
20056;SDS011;10189;49.546;7.906;2023-04-03T12:16:05;7.15;;;3.00;;
20056;SDS011;10189;49.546;7.906;2023-04-03T12:21:07;6.00;;;2.20;;
20056;SDS011;10189;49.546;7.906;2023-04-03T12:23:34;4.13;;;1.88;;
20056;SDS011;10189;49.546;7.906;2023-04-03T12:26:21;4.55;;;2.90;;
20056;SDS011;10189;49.546;7.906;2023-04-03T12:28:52;8.38;;;4.97;;
20056;SDS011;10189;49.546;7.906;2023-04-03T12:31:20;4.68;;;3.70;;
20056;SDS011;10189;49.546;7.906;2023-04-03T12:37:17;6.25;;;3.85;;
20056;SDS011;10189;49.546;7.906;2023-04-03T12:45:41;4.70;;;2.67;;
20056;SDS011;10189;49.546;7.906;2023-04-03T12:48:18;5.95;;;3.35;;
20056;SDS011;10189;49.546;7.906;2023-04-03T12:50:52;6.57;;;3.55;;
20056;SDS011;10189;49.546;7.906;2023-04-03T12:53:26;10.32;;;4.63;;
20056;SDS011;10189;49.546;7.906;2023-04-03T12:58:47;4.15;;;2.97;;
20056;SDS011;10189;49.546;7.906;2023-04-03T13:01:20;5.53;;;2.70;;
20056;SDS011;10189;49.546;7.906;2023-04-03T13:03:52;10.23;;;4.15;;
20056;SDS011;10189;49.546;7.906;2023-04-03T13:06:23;5.28;;;3.25;;
20056;SDS011;10189;49.546;7.906;2023-04-03T13:09:06;6.25;;;3.22;;
20056;SDS011;10189;49.546;7.906;2023-04-03T13:11:47;6.45;;;3.97;;
20056;SDS011;10189;49.546;7.906;2023-04-03T13:14:36;6.95;;;4.78;;
20056;SDS011;10189;49.546;7.906;2023-04-03T13:17:09;5.68;;;3.40;;
20056;SDS011;10189;49.546;7.906;2023-04-03T13:19:42;9.95;;;6.53;;
20056;SDS011;10189;49.546;7.906;2023-04-03T13:25:09;7.70;;;5.35;;
20056;SDS011;10189;49.546;7.906;2023-04-03T13:27:40;5.85;;;3.88;;
20056;SDS011;10189;49.546;7.906;2023-04-03T13:30:17;7.07;;;5.07;;
20056;SDS011;10189;49.546;7.906;2023-04-03T13:32:54;5.40;;;2.95;;
20056;SDS011;10189;49.546;7.906;2023-04-03T13:37:58;5.47;;;2.90;;
20056;SDS011;10189;49.546;7.906;2023-04-03T13:40:48;6.05;;;4.15;;
20056;SDS011;10189;49.546;7.906;2023-04-03T13:43:33;4.07;;;2.75;;
20056;SDS011;10189;49.546;7.906;2023-04-03T13:46:20;4.07;;;2.60;;
20056;SDS011;10189;49.546;7.906;2023-04-03T13:48:53;4.75;;;2.90;;
20056;SDS011;10189;49.546;7.906;2023-04-03T13:51:23;3.38;;;2.30;;
20056;SDS011;10189;49.546;7.906;2023-04-03T13:53:56;3.05;;;2.22;;
20056;SDS011;10189;49.546;7.906;2023-04-03T13:56:33;5.13;;;3.25;;
20056;SDS011;10189;49.546;7.906;2023-04-03T14:04:15;4.85;;;2.78;;
20056;SDS011;10189;49.546;7.906;2023-04-03T14:06:51;4.50;;;2.50;;
20056;SDS011;10189;49.546;7.906;2023-04-03T14:09:18;22.75;;;18.83;;
20056;SDS011;10189;49.546;7.906;2023-04-03T14:11:46;7.82;;;6.07;;
20056;SDS011;10189;49.546;7.906;2023-04-03T14:14:17;5.32;;;3.33;;
20056;SDS011;10189;49.546;7.906;2023-04-03T14:16:54;7.18;;;4.10;;
20056;SDS011;10189;49.546;7.906;2023-04-03T14:19:24;3.38;;;2.55;;
20056;SDS011;10189;49.546;7.906;2023-04-03T14:21:57;7.70;;;6.80;;
20056;SDS011;10189;49.546;7.906;2023-04-03T14:24:25;6.82;;;2.88;;
20056;SDS011;10189;49.546;7.906;2023-04-03T14:26:53;3.22;;;2.40;;
20056;SDS011;10189;49.546;7.906;2023-04-03T14:29:21;5.03;;;3.65;;
20056;SDS011;10189;49.546;7.906;2023-04-03T14:31:48;4.10;;;2.80;;
20056;SDS011;10189;49.546;7.906;2023-04-03T14:34:15;4.28;;;3.08;;
20056;SDS011;10189;49.546;7.906;2023-04-03T14:36:42;4.10;;;2.22;;
20056;SDS011;10189;49.546;7.906;2023-04-03T14:39:16;5.97;;;3.28;;
20056;SDS011;10189;49.546;7.906;2023-04-03T14:41:47;14.77;;;7.95;;
20056;SDS011;10189;49.546;7.906;2023-04-03T14:44:13;29.60;;;15.82;;
20056;SDS011;10189;49.546;7.906;2023-04-03T14:46:41;3.28;;;2.40;;
20056;SDS011;10189;49.546;7.906;2023-04-03T14:49:14;4.78;;;3.03;;
20056;SDS011;10189;49.546;7.906;2023-04-03T14:51:45;4.60;;;2.63;;
20056;SDS011;10189;49.546;7.906;2023-04-03T14:54:16;3.85;;;2.63;;
20056;SDS011;10189;49.546;7.906;2023-04-03T14:56:50;5.43;;;4.07;;
20056;SDS011;10189;49.546;7.906;2023-04-03T14:59:17;4.28;;;2.75;;
20056;SDS011;10189;49.546;7.906;2023-04-03T15:01:45;4.85;;;2.50;;
20056;SDS011;10189;49.546;7.906;2023-04-03T15:04:15;5.78;;;2.83;;
20056;SDS011;10189;49.546;7.906;2023-04-03T15:06:46;6.13;;;3.67;;
20056;SDS011;10189;49.546;7.906;2023-04-03T15:09:24;3.33;;;2.40;;
20056;SDS011;10189;49.546;7.906;2023-04-03T15:11:53;5.60;;;4.07;;
20056;SDS011;10189;49.546;7.906;2023-04-03T15:14:20;4.45;;;2.70;;
20056;SDS011;10189;49.546;7.906;2023-04-03T15:16:46;3.95;;;3.33;;
20056;SDS011;10189;49.546;7.906;2023-04-03T15:19:13;4.50;;;3.13;;
20056;SDS011;10189;49.546;7.906;2023-04-03T15:21:39;5.38;;;3.50;;
20056;SDS011;10189;49.546;7.906;2023-04-03T15:24:05;7.38;;;3.80;;
20056;SDS011;10189;49.546;7.906;2023-04-03T15:26:31;4.78;;;3.50;;
20056;SDS011;10189;49.546;7.906;2023-04-03T15:28:58;4.65;;;3.25;;
20056;SDS011;10189;49.546;7.906;2023-04-03T15:31:24;4.65;;;2.80;;
20056;SDS011;10189;49.546;7.906;2023-04-03T15:33:50;3.15;;;2.40;;
20056;SDS011;10189;49.546;7.906;2023-04-03T15:36:15;3.90;;;2.88;;
20056;SDS011;10189;49.546;7.906;2023-04-03T15:38:41;4.82;;;3.80;;
20056;SDS011;10189;49.546;7.906;2023-04-03T15:41:07;4.82;;;3.28;;
20056;SDS011;10189;49.546;7.906;2023-04-03T15:43:33;6.85;;;5.35;;
20056;SDS011;10189;49.546;7.906;2023-04-03T15:46:00;4.20;;;3.13;;
20056;SDS011;10189;49.546;7.906;2023-04-03T15:48:27;3.38;;;2.80;;
20056;SDS011;10189;49.546;7.906;2023-04-03T15:50:53;3.47;;;2.53;;
20056;SDS011;10189;49.546;7.906;2023-04-03T15:53:20;4.40;;;2.40;;
20056;SDS011;10189;49.546;7.906;2023-04-03T15:55:45;3.10;;;2.55;;
20056;SDS011;10189;49.546;7.906;2023-04-03T15:58:11;3.47;;;2.80;;
20056;SDS011;10189;49.546;7.906;2023-04-03T16:00:37;5.70;;;3.67;;
20056;SDS011;10189;49.546;7.906;2023-04-03T16:03:05;8.90;;;6.60;;
20056;SDS011;10189;49.546;7.906;2023-04-03T16:05:36;5.13;;;3.67;;
20056;SDS011;10189;49.546;7.906;2023-04-03T16:08:04;9.40;;;4.97;;
20056;SDS011;10189;49.546;7.906;2023-04-03T16:10:32;5.45;;;3.70;;
20056;SDS011;10189;49.546;7.906;2023-04-03T16:13:00;4.93;;;4.07;;
20056;SDS011;10189;49.546;7.906;2023-04-03T16:15:26;6.95;;;4.85;;
20056;SDS011;10189;49.546;7.906;2023-04-03T16:17:52;6.93;;;5.95;;
20056;SDS011;10189;49.546;7.906;2023-04-03T16:20:19;5.88;;;3.95;;
20056;SDS011;10189;49.546;7.906;2023-04-03T16:22:47;4.65;;;3.53;;
20056;SDS011;10189;49.546;7.906;2023-04-03T16:25:14;5.22;;;4.72;;
20056;SDS011;10189;49.546;7.906;2023-04-03T16:27:40;6.22;;;4.38;;
20056;SDS011;10189;49.546;7.906;2023-04-03T16:30:06;4.43;;;3.47;;
20056;SDS011;10189;49.546;7.906;2023-04-03T16:32:33;5.65;;;4.00;;
20056;SDS011;10189;49.546;7.906;2023-04-03T16:35:01;9.60;;;4.00;;
20056;SDS011;10189;49.546;7.906;2023-04-03T16:37:27;5.10;;;3.45;;
20056;SDS011;10189;49.546;7.906;2023-04-03T16:39:53;5.53;;;3.60;;
20056;SDS011;10189;49.546;7.906;2023-04-03T16:42:19;6.25;;;3.67;;
20056;SDS011;10189;49.546;7.906;2023-04-03T16:44:45;7.38;;;3.30;;
20056;SDS011;10189;49.546;7.906;2023-04-03T16:47:11;6.85;;;4.50;;
20056;SDS011;10189;49.546;7.906;2023-04-03T16:49:38;11.25;;;6.68;;
20056;SDS011;10189;49.546;7.906;2023-04-03T16:52:05;11.88;;;7.07;;